Naples, Florida
Current Conditions -  °F | °C
As of 6:53 PM on Friday 24 Oct 2014 (Local Time) from KAPF Reporting Station
Few Clouds Few Clouds  
Wind Chill: 78°   Ceiling: Unl
Heat Index: 80°   Visibility: 10mi
Dew Point: 64°   Wind: 10mph
Humidity: 62%   Direction: 60°ENE
Pressure: 29.84"   Gusts: NA
Location:  26.14°N, 81.79°W
Report Text: KAPF 242253Z 06009KT 10SM FEW048 26/18 A2984 RMK AO2 SLP102 T02560178
Loading
Personal Weather Stations






























Interactive Weather Map
Tropical Storm Tracking
New forecast layout! Learn more

10-Day Weather Forecast

Advertisements
Track Severe Weather on mobile